sensor_id;sensor_type;location;lat;lon;timestamp;P1;durP1;ratioP1;P2;durP2;ratioP2
17201;SDS011;8717;53.588;10.176;2023-05-07T00:00:00;11.10;;;9.23;;
17201;SDS011;8717;53.588;10.176;2023-05-07T00:02:30;12.47;;;9.27;;
17201;SDS011;8717;53.588;10.176;2023-05-07T00:04:57;11.43;;;9.40;;
17201;SDS011;8717;53.588;10.176;2023-05-07T00:07:24;11.73;;;9.30;;
17201;SDS011;8717;53.588;10.176;2023-05-07T00:09:53;12.00;;;8.90;;
17201;SDS011;8717;53.588;10.176;2023-05-07T00:12:20;11.87;;;9.03;;
17201;SDS011;8717;53.588;10.176;2023-05-07T00:14:47;10.67;;;9.17;;
17201;SDS011;8717;53.588;10.176;2023-05-07T00:17:14;12.67;;;9.97;;
17201;SDS011;8717;53.588;10.176;2023-05-07T00:19:41;11.43;;;9.10;;
17201;SDS011;8717;53.588;10.176;2023-05-07T00:22:08;12.13;;;9.43;;
17201;SDS011;8717;53.588;10.176;2023-05-07T00:24:36;11.73;;;9.47;;
17201;SDS011;8717;53.588;10.176;2023-05-07T00:27:04;11.03;;;9.57;;
17201;SDS011;8717;53.588;10.176;2023-05-07T00:29:31;11.57;;;8.80;;
17201;SDS011;8717;53.588;10.176;2023-05-07T00:31:58;12.07;;;9.87;;
17201;SDS011;8717;53.588;10.176;2023-05-07T00:34:25;12.57;;;9.63;;
17201;SDS011;8717;53.588;10.176;2023-05-07T00:36:52;12.07;;;9.93;;
17201;SDS011;8717;53.588;10.176;2023-05-07T00:39:19;11.53;;;9.63;;
17201;SDS011;8717;53.588;10.176;2023-05-07T00:41:46;12.37;;;9.20;;
17201;SDS011;8717;53.588;10.176;2023-05-07T00:44:15;11.13;;;9.03;;
17201;SDS011;8717;53.588;10.176;2023-05-07T00:46:43;11.20;;;8.93;;
17201;SDS011;8717;53.588;10.176;2023-05-07T00:49:13;10.97;;;8.83;;
17201;SDS011;8717;53.588;10.176;2023-05-07T00:51:40;11.33;;;9.17;;
17201;SDS011;8717;53.588;10.176;2023-05-07T00:54:08;11.67;;;9.33;;
17201;SDS011;8717;53.588;10.176;2023-05-07T00:56:35;11.47;;;8.67;;
17201;SDS011;8717;53.588;10.176;2023-05-07T00:59:04;10.27;;;8.70;;
17201;SDS011;8717;53.588;10.176;2023-05-07T01:01:33;11.67;;;9.03;;
17201;SDS011;8717;53.588;10.176;2023-05-07T01:04:03;10.37;;;8.30;;
17201;SDS011;8717;53.588;10.176;2023-05-07T01:06:30;9.87;;;8.60;;
17201;SDS011;8717;53.588;10.176;2023-05-07T01:08:59;10.87;;;8.73;;
17201;SDS011;8717;53.588;10.176;2023-05-07T01:11:29;10.77;;;8.67;;
17201;SDS011;8717;53.588;10.176;2023-05-07T01:13:56;12.27;;;8.87;;
17201;SDS011;8717;53.588;10.176;2023-05-07T01:16:25;11.63;;;8.87;;
17201;SDS011;8717;53.588;10.176;2023-05-07T01:18:53;12.93;;;9.67;;
17201;SDS011;8717;53.588;10.176;2023-05-07T01:21:21;9.80;;;8.27;;
17201;SDS011;8717;53.588;10.176;2023-05-07T01:23:56;11.47;;;8.63;;
17201;SDS011;8717;53.588;10.176;2023-05-07T01:26:24;10.40;;;8.40;;
17201;SDS011;8717;53.588;10.176;2023-05-07T01:28:50;9.90;;;8.50;;
17201;SDS011;8717;53.588;10.176;2023-05-07T01:31:17;9.30;;;8.20;;
17201;SDS011;8717;53.588;10.176;2023-05-07T01:33:45;10.73;;;8.00;;
17201;SDS011;8717;53.588;10.176;2023-05-07T01:36:15;10.73;;;8.33;;
17201;SDS011;8717;53.588;10.176;2023-05-07T01:38:53;12.33;;;8.57;;
17201;SDS011;8717;53.588;10.176;2023-05-07T01:41:24;10.83;;;8.20;;
17201;SDS011;8717;53.588;10.176;2023-05-07T01:43:52;10.80;;;8.73;;
17201;SDS011;8717;53.588;10.176;2023-05-07T01:46:20;10.63;;;8.17;;
17201;SDS011;8717;53.588;10.176;2023-05-07T01:48:47;9.53;;;8.50;;
17201;SDS011;8717;53.588;10.176;2023-05-07T01:51:14;9.23;;;8.00;;
17201;SDS011;8717;53.588;10.176;2023-05-07T01:53:41;8.63;;;7.43;;
17201;SDS011;8717;53.588;10.176;2023-05-07T01:56:09;9.43;;;7.47;;
17201;SDS011;8717;53.588;10.176;2023-05-07T01:58:40;9.37;;;7.63;;
17201;SDS011;8717;53.588;10.176;2023-05-07T02:01:07;9.33;;;7.73;;
17201;SDS011;8717;53.588;10.176;2023-05-07T02:03:34;10.17;;;8.07;;
17201;SDS011;8717;53.588;10.176;2023-05-07T02:06:08;11.20;;;8.20;;
17201;SDS011;8717;53.588;10.176;2023-05-07T02:08:37;9.60;;;7.53;;
17201;SDS011;8717;53.588;10.176;2023-05-07T02:11:05;10.33;;;7.47;;
17201;SDS011;8717;53.588;10.176;2023-05-07T02:13:33;9.43;;;7.37;;
17201;SDS011;8717;53.588;10.176;2023-05-07T02:16:02;10.50;;;8.13;;
17201;SDS011;8717;53.588;10.176;2023-05-07T02:18:30;9.17;;;7.93;;
17201;SDS011;8717;53.588;10.176;2023-05-07T02:20:57;10.10;;;8.57;;
17201;SDS011;8717;53.588;10.176;2023-05-07T02:23:24;9.53;;;8.20;;
17201;SDS011;8717;53.588;10.176;2023-05-07T02:25:51;11.23;;;8.10;;
17201;SDS011;8717;53.588;10.176;2023-05-07T02:28:18;9.83;;;8.20;;
17201;SDS011;8717;53.588;10.176;2023-05-07T02:30:52;10.77;;;8.20;;
17201;SDS011;8717;53.588;10.176;2023-05-07T02:33:21;9.20;;;8.13;;
17201;SDS011;8717;53.588;10.176;2023-05-07T02:35:47;9.77;;;8.07;;
17201;SDS011;8717;53.588;10.176;2023-05-07T02:38:15;10.10;;;8.37;;
17201;SDS011;8717;53.588;10.176;2023-05-07T02:40:42;9.63;;;8.07;;
17201;SDS011;8717;53.588;10.176;2023-05-07T02:43:09;10.23;;;8.53;;
17201;SDS011;8717;53.588;10.176;2023-05-07T02:45:37;9.60;;;8.40;;
17201;SDS011;8717;53.588;10.176;2023-05-07T02:48:05;11.67;;;9.27;;
17201;SDS011;8717;53.588;10.176;2023-05-07T02:50:33;11.17;;;8.67;;
17201;SDS011;8717;53.588;10.176;2023-05-07T02:53:00;11.30;;;8.70;;
17201;SDS011;8717;53.588;10.176;2023-05-07T02:55:27;10.33;;;8.23;;
17201;SDS011;8717;53.588;10.176;2023-05-07T02:57:54;10.87;;;8.67;;
17201;SDS011;8717;53.588;10.176;2023-05-07T03:00:22;9.23;;;8.30;;
17201;SDS011;8717;53.588;10.176;2023-05-07T03:03:08;10.03;;;8.13;;
17201;SDS011;8717;53.588;10.176;2023-05-07T03:05:37;11.27;;;8.30;;
17201;SDS011;8717;53.588;10.176;2023-05-07T03:08:04;10.00;;;8.87;;
17201;SDS011;8717;53.588;10.176;2023-05-07T03:10:32;9.33;;;7.90;;
17201;SDS011;8717;53.588;10.176;2023-05-07T03:12:59;9.93;;;7.77;;
17201;SDS011;8717;53.588;10.176;2023-05-07T03:15:25;9.70;;;7.80;;
17201;SDS011;8717;53.588;10.176;2023-05-07T03:17:52;10.83;;;8.87;;
17201;SDS011;8717;53.588;10.176;2023-05-07T03:20:19;9.87;;;8.67;;
17201;SDS011;8717;53.588;10.176;2023-05-07T03:22:47;10.03;;;8.43;;
17201;SDS011;8717;53.588;10.176;2023-05-07T03:25:14;10.13;;;8.40;;
17201;SDS011;8717;53.588;10.176;2023-05-07T03:27:41;9.33;;;8.43;;
17201;SDS011;8717;53.588;10.176;2023-05-07T03:30:08;11.03;;;8.80;;
17201;SDS011;8717;53.588;10.176;2023-05-07T03:32:35;9.00;;;8.10;;
17201;SDS011;8717;53.588;10.176;2023-05-07T03:35:06;10.53;;;8.73;;
17201;SDS011;8717;53.588;10.176;2023-05-07T03:37:33;10.57;;;7.87;;
17201;SDS011;8717;53.588;10.176;2023-05-07T03:40:01;9.00;;;7.60;;
17201;SDS011;8717;53.588;10.176;2023-05-07T03:42:32;11.00;;;8.83;;
17201;SDS011;8717;53.588;10.176;2023-05-07T03:44:59;11.57;;;8.13;;
17201;SDS011;8717;53.588;10.176;2023-05-07T03:47:26;10.43;;;8.37;;
17201;SDS011;8717;53.588;10.176;2023-05-07T03:49:53;12.50;;;8.23;;
17201;SDS011;8717;53.588;10.176;2023-05-07T03:52:23;11.53;;;8.50;;
17201;SDS011;8717;53.588;10.176;2023-05-07T03:54:52;10.37;;;7.77;;
17201;SDS011;8717;53.588;10.176;2023-05-07T03:57:21;10.17;;;7.97;;
17201;SDS011;8717;53.588;10.176;2023-05-07T03:59:48;10.70;;;8.63;;
17201;SDS011;8717;53.588;10.176;2023-05-07T04:02:15;10.70;;;8.53;;
17201;SDS011;8717;53.588;10.176;2023-05-07T04:04:43;10.07;;;8.57;;
17201;SDS011;8717;53.588;10.176;2023-05-07T04:07:10;10.90;;;8.33;;
17201;SDS011;8717;53.588;10.176;2023-05-07T04:09:41;9.70;;;8.20;;
17201;SDS011;8717;53.588;10.176;2023-05-07T04:12:08;9.93;;;8.00;;
17201;SDS011;8717;53.588;10.176;2023-05-07T04:14:36;10.67;;;8.00;;
17201;SDS011;8717;53.588;10.176;2023-05-07T04:17:03;10.30;;;8.33;;
17201;SDS011;8717;53.588;10.176;2023-05-07T04:19:32;9.53;;;8.27;;
17201;SDS011;8717;53.588;10.176;2023-05-07T04:22:00;8.83;;;7.90;;
17201;SDS011;8717;53.588;10.176;2023-05-07T04:24:30;10.43;;;7.67;;
17201;SDS011;8717;53.588;10.176;2023-05-07T04:26:59;9.30;;;7.93;;
17201;SDS011;8717;53.588;10.176;2023-05-07T04:29:26;10.43;;;8.77;;
17201;SDS011;8717;53.588;10.176;2023-05-07T04:31:55;8.97;;;7.80;;
17201;SDS011;8717;53.588;10.176;2023-05-07T04:34:24;10.00;;;7.97;;
17201;SDS011;8717;53.588;10.176;2023-05-07T04:36:51;10.20;;;7.77;;
17201;SDS011;8717;53.588;10.176;2023-05-07T04:39:18;9.07;;;7.20;;
17201;SDS011;8717;53.588;10.176;2023-05-07T04:41:47;8.93;;;6.97;;
17201;SDS011;8717;53.588;10.176;2023-05-07T04:44:13;8.73;;;7.10;;
17201;SDS011;8717;53.588;10.176;2023-05-07T04:46:41;9.37;;;7.63;;
17201;SDS011;8717;53.588;10.176;2023-05-07T04:49:09;8.47;;;7.10;;
17201;SDS011;8717;53.588;10.176;2023-05-07T04:51:36;8.77;;;6.97;;
17201;SDS011;8717;53.588;10.176;2023-05-07T04:54:03;8.90;;;6.57;;
17201;SDS011;8717;53.588;10.176;2023-05-07T04:56:30;8.07;;;6.93;;
17201;SDS011;8717;53.588;10.176;2023-05-07T04:58:58;8.40;;;6.63;;
17201;SDS011;8717;53.588;10.176;2023-05-07T05:01:25;7.30;;;6.40;;
17201;SDS011;8717;53.588;10.176;2023-05-07T05:03:51;8.03;;;6.03;;
17201;SDS011;8717;53.588;10.176;2023-05-07T05:06:20;8.33;;;6.13;;
17201;SDS011;8717;53.588;10.176;2023-05-07T05:08:48;7.17;;;6.47;;
17201;SDS011;8717;53.588;10.176;2023-05-07T05:11:15;8.13;;;7.10;;
17201;SDS011;8717;53.588;10.176;2023-05-07T05:13:42;7.30;;;6.50;;
17201;SDS011;8717;53.588;10.176;2023-05-07T05:16:15;8.97;;;6.43;;
17201;SDS011;8717;53.588;10.176;2023-05-07T05:18:42;8.50;;;6.23;;
17201;SDS011;8717;53.588;10.176;2023-05-07T05:21:11;8.37;;;6.83;;
17201;SDS011;8717;53.588;10.176;2023-05-07T05:23:41;7.70;;;6.87;;
17201;SDS011;8717;53.588;10.176;2023-05-07T05:26:08;7.17;;;6.47;;
17201;SDS011;8717;53.588;10.176;2023-05-07T05:28:35;8.87;;;6.87;;
17201;SDS011;8717;53.588;10.176;2023-05-07T05:31:03;8.70;;;7.20;;
17201;SDS011;8717;53.588;10.176;2023-05-07T05:33:33;8.77;;;7.40;;
17201;SDS011;8717;53.588;10.176;2023-05-07T05:36:03;7.63;;;6.80;;
17201;SDS011;8717;53.588;10.176;2023-05-07T05:38:31;8.77;;;7.30;;
17201;SDS011;8717;53.588;10.176;2023-05-07T05:40:59;8.67;;;6.57;;
17201;SDS011;8717;53.588;10.176;2023-05-07T05:43:28;8.43;;;6.67;;
17201;SDS011;8717;53.588;10.176;2023-05-07T05:45:55;7.97;;;7.03;;
17201;SDS011;8717;53.588;10.176;2023-05-07T05:48:22;7.80;;;6.80;;
17201;SDS011;8717;53.588;10.176;2023-05-07T05:50:50;7.70;;;6.63;;
17201;SDS011;8717;53.588;10.176;2023-05-07T05:53:17;7.63;;;6.83;;
17201;SDS011;8717;53.588;10.176;2023-05-07T05:55:44;8.70;;;6.87;;
17201;SDS011;8717;53.588;10.176;2023-05-07T05:58:12;8.40;;;6.70;;
17201;SDS011;8717;53.588;10.176;2023-05-07T06:00:43;6.97;;;6.27;;
17201;SDS011;8717;53.588;10.176;2023-05-07T06:03:10;6.77;;;6.07;;
17201;SDS011;8717;53.588;10.176;2023-05-07T06:05:37;7.10;;;6.40;;
17201;SDS011;8717;53.588;10.176;2023-05-07T06:08:04;7.40;;;6.53;;
17201;SDS011;8717;53.588;10.176;2023-05-07T06:10:32;7.67;;;6.17;;
17201;SDS011;8717;53.588;10.176;2023-05-07T06:13:00;7.30;;;6.13;;
17201;SDS011;8717;53.588;10.176;2023-05-07T06:15:29;6.93;;;6.23;;
17201;SDS011;8717;53.588;10.176;2023-05-07T06:18:00;7.37;;;6.10;;
17201;SDS011;8717;53.588;10.176;2023-05-07T06:20:27;7.27;;;6.50;;
17201;SDS011;8717;53.588;10.176;2023-05-07T06:22:54;6.33;;;5.73;;
17201;SDS011;8717;53.588;10.176;2023-05-07T06:25:21;6.73;;;5.80;;
17201;SDS011;8717;53.588;10.176;2023-05-07T06:27:47;7.33;;;6.63;;
17201;SDS011;8717;53.588;10.176;2023-05-07T06:30:14;7.80;;;6.03;;
17201;SDS011;8717;53.588;10.176;2023-05-07T06:32:42;6.60;;;5.47;;
17201;SDS011;8717;53.588;10.176;2023-05-07T06:35:10;7.13;;;5.90;;
17201;SDS011;8717;53.588;10.176;2023-05-07T06:37:38;7.13;;;6.23;;
17201;SDS011;8717;53.588;10.176;2023-05-07T06:40:11;7.43;;;5.70;;
17201;SDS011;8717;53.588;10.176;2023-05-07T06:42:39;6.63;;;5.70;;
17201;SDS011;8717;53.588;10.176;2023-05-07T06:45:22;7.00;;;5.80;;
17201;SDS011;8717;53.588;10.176;2023-05-07T06:47:53;6.87;;;5.67;;
17201;SDS011;8717;53.588;10.176;2023-05-07T06:50:20;7.60;;;5.70;;
17201;SDS011;8717;53.588;10.176;2023-05-07T06:52:47;5.97;;;5.33;;
17201;SDS011;8717;53.588;10.176;2023-05-07T06:55:14;6.60;;;5.40;;
17201;SDS011;8717;53.588;10.176;2023-05-07T06:57:41;6.20;;;5.20;;
17201;SDS011;8717;53.588;10.176;2023-05-07T07:00:08;5.77;;;5.00;;
17201;SDS011;8717;53.588;10.176;2023-05-07T07:02:43;6.70;;;5.53;;
17201;SDS011;8717;53.588;10.176;2023-05-07T07:05:12;6.10;;;5.47;;
17201;SDS011;8717;53.588;10.176;2023-05-07T07:07:38;5.93;;;5.33;;
17201;SDS011;8717;53.588;10.176;2023-05-07T07:10:06;5.70;;;4.70;;
17201;SDS011;8717;53.588;10.176;2023-05-07T07:12:34;5.70;;;5.07;;
17201;SDS011;8717;53.588;10.176;2023-05-07T07:15:00;5.53;;;4.87;;
17201;SDS011;8717;53.588;10.176;2023-05-07T07:17:27;6.23;;;5.17;;
17201;SDS011;8717;53.588;10.176;2023-05-07T07:19:54;6.07;;;4.70;;
17201;SDS011;8717;53.588;10.176;2023-05-07T07:22:23;5.60;;;5.03;;
17201;SDS011;8717;53.588;10.176;2023-05-07T07:24:49;6.60;;;4.93;;
17201;SDS011;8717;53.588;10.176;2023-05-07T07:27:17;4.80;;;4.30;;
17201;SDS011;8717;53.588;10.176;2023-05-07T07:29:43;5.90;;;5.10;;
17201;SDS011;8717;53.588;10.176;2023-05-07T07:32:10;5.70;;;5.10;;
17201;SDS011;8717;53.588;10.176;2023-05-07T07:34:37;6.43;;;4.80;;
17201;SDS011;8717;53.588;10.176;2023-05-07T07:37:04;5.70;;;4.70;;
17201;SDS011;8717;53.588;10.176;2023-05-07T07:39:33;6.73;;;5.00;;
17201;SDS011;8717;53.588;10.176;2023-05-07T07:42:00;5.43;;;4.93;;
17201;SDS011;8717;53.588;10.176;2023-05-07T07:44:28;5.47;;;4.60;;
17201;SDS011;8717;53.588;10.176;2023-05-07T07:46:59;5.80;;;5.20;;
17201;SDS011;8717;53.588;10.176;2023-05-07T07:49:26;5.50;;;4.73;;
17201;SDS011;8717;53.588;10.176;2023-05-07T07:51:54;5.33;;;4.83;;
17201;SDS011;8717;53.588;10.176;2023-05-07T07:54:21;5.20;;;4.70;;
17201;SDS011;8717;53.588;10.176;2023-05-07T07:56:49;5.93;;;4.90;;
17201;SDS011;8717;53.588;10.176;2023-05-07T07:59:17;5.20;;;4.53;;
17201;SDS011;8717;53.588;10.176;2023-05-07T08:01:44;5.23;;;4.73;;
17201;SDS011;8717;53.588;10.176;2023-05-07T08:04:13;5.83;;;5.07;;
17201;SDS011;8717;53.588;10.176;2023-05-07T08:06:41;6.93;;;5.10;;
17201;SDS011;8717;53.588;10.176;2023-05-07T08:09:09;6.37;;;4.90;;
17201;SDS011;8717;53.588;10.176;2023-05-07T08:11:37;6.50;;;5.13;;
17201;SDS011;8717;53.588;10.176;2023-05-07T08:14:06;5.80;;;5.23;;
17201;SDS011;8717;53.588;10.176;2023-05-07T08:16:33;5.27;;;4.77;;
17201;SDS011;8717;53.588;10.176;2023-05-07T08:19:00;6.63;;;4.77;;
17201;SDS011;8717;53.588;10.176;2023-05-07T08:21:27;6.10;;;4.93;;
17201;SDS011;8717;53.588;10.176;2023-05-07T08:23:53;4.93;;;4.43;;
17201;SDS011;8717;53.588;10.176;2023-05-07T08:26:20;6.40;;;4.70;;
17201;SDS011;8717;53.588;10.176;2023-05-07T08:28:47;5.30;;;4.80;;
17201;SDS011;8717;53.588;10.176;2023-05-07T08:31:15;6.13;;;4.87;;
17201;SDS011;8717;53.588;10.176;2023-05-07T08:33:43;5.73;;;4.63;;
17201;SDS011;8717;53.588;10.176;2023-05-07T08:36:10;5.23;;;4.73;;
17201;SDS011;8717;53.588;10.176;2023-05-07T08:38:37;7.37;;;4.53;;
17201;SDS011;8717;53.588;10.176;2023-05-07T08:41:05;4.97;;;4.37;;
17201;SDS011;8717;53.588;10.176;2023-05-07T08:43:32;5.20;;;4.70;;
17201;SDS011;8717;53.588;10.176;2023-05-07T08:46:02;5.23;;;4.53;;
17201;SDS011;8717;53.588;10.176;2023-05-07T08:48:35;5.50;;;4.90;;
17201;SDS011;8717;53.588;10.176;2023-05-07T08:51:08;4.73;;;4.30;;
17201;SDS011;8717;53.588;10.176;2023-05-07T08:53:38;4.63;;;4.23;;
17201;SDS011;8717;53.588;10.176;2023-05-07T08:56:09;6.90;;;4.27;;
17201;SDS011;8717;53.588;10.176;2023-05-07T08:58:36;4.73;;;4.33;;
17201;SDS011;8717;53.588;10.176;2023-05-07T09:01:06;5.27;;;4.10;;
17201;SDS011;8717;53.588;10.176;2023-05-07T09:03:36;4.53;;;3.40;;
17201;SDS011;8717;53.588;10.176;2023-05-07T09:06:04;4.57;;;3.70;;
17201;SDS011;8717;53.588;10.176;2023-05-07T09:08:32;5.47;;;4.23;;
17201;SDS011;8717;53.588;10.176;2023-05-07T09:11:01;4.20;;;3.77;;
17201;SDS011;8717;53.588;10.176;2023-05-07T09:13:28;5.40;;;3.43;;
17201;SDS011;8717;53.588;10.176;2023-05-07T09:15:56;4.03;;;3.60;;
17201;SDS011;8717;53.588;10.176;2023-05-07T09:18:24;4.33;;;3.93;;
17201;SDS011;8717;53.588;10.176;2023-05-07T09:20:53;6.07;;;4.07;;
17201;SDS011;8717;53.588;10.176;2023-05-07T09:23:21;4.73;;;3.80;;
17201;SDS011;8717;53.588;10.176;2023-05-07T09:25:47;4.37;;;3.80;;
17201;SDS011;8717;53.588;10.176;2023-05-07T09:28:21;5.30;;;3.63;;
17201;SDS011;8717;53.588;10.176;2023-05-07T09:30:47;4.30;;;3.90;;
17201;SDS011;8717;53.588;10.176;2023-05-07T09:33:14;3.83;;;3.50;;
17201;SDS011;8717;53.588;10.176;2023-05-07T09:35:46;4.87;;;3.60;;
17201;SDS011;8717;53.588;10.176;2023-05-07T09:38:18;5.60;;;4.00;;
17201;SDS011;8717;53.588;10.176;2023-05-07T09:40:52;4.20;;;3.80;;
17201;SDS011;8717;53.588;10.176;2023-05-07T09:43:31;4.27;;;3.80;;
17201;SDS011;8717;53.588;10.176;2023-05-07T09:46:00;4.63;;;3.93;;
17201;SDS011;8717;53.588;10.176;2023-05-07T09:48:29;4.33;;;3.80;;
17201;SDS011;8717;53.588;10.176;2023-05-07T09:50:57;3.80;;;3.40;;
17201;SDS011;8717;53.588;10.176;2023-05-07T09:53:33;4.47;;;3.80;;
17201;SDS011;8717;53.588;10.176;2023-05-07T09:56:02;6.33;;;3.33;;
17201;SDS011;8717;53.588;10.176;2023-05-07T09:58:31;6.63;;;3.77;;
17201;SDS011;8717;53.588;10.176;2023-05-07T10:00:59;4.37;;;3.40;;
17201;SDS011;8717;53.588;10.176;2023-05-07T10:03:28;4.73;;;4.10;;
17201;SDS011;8717;53.588;10.176;2023-05-07T10:06:01;3.97;;;3.50;;
17201;SDS011;8717;53.588;10.176;2023-05-07T10:08:30;3.80;;;3.47;;
17201;SDS011;8717;53.588;10.176;2023-05-07T10:11:00;3.77;;;3.37;;
17201;SDS011;8717;53.588;10.176;2023-05-07T10:13:30;3.90;;;3.50;;
17201;SDS011;8717;53.588;10.176;2023-05-07T10:15:58;5.40;;;4.00;;
17201;SDS011;8717;53.588;10.176;2023-05-07T10:18:31;3.97;;;3.50;;
17201;SDS011;8717;53.588;10.176;2023-05-07T10:21:04;4.70;;;3.60;;
17201;SDS011;8717;53.588;10.176;2023-05-07T10:23:35;3.60;;;3.30;;
17201;SDS011;8717;53.588;10.176;2023-05-07T10:26:06;3.90;;;3.07;;
17201;SDS011;8717;53.588;10.176;2023-05-07T10:28:36;4.00;;;3.20;;
17201;SDS011;8717;53.588;10.176;2023-05-07T10:34:07;3.93;;;3.10;;
17201;SDS011;8717;53.588;10.176;2023-05-07T10:36:37;4.33;;;3.40;;
17201;SDS011;8717;53.588;10.176;2023-05-07T10:39:05;3.43;;;3.10;;
17201;SDS011;8717;53.588;10.176;2023-05-07T10:41:34;3.63;;;3.30;;
17201;SDS011;8717;53.588;10.176;2023-05-07T10:44:02;4.17;;;3.10;;
17201;SDS011;8717;53.588;10.176;2023-05-07T10:46:31;3.50;;;3.13;;
17201;SDS011;8717;53.588;10.176;2023-05-07T10:49:11;3.57;;;3.27;;
17201;SDS011;8717;53.588;10.176;2023-05-07T10:52:12;3.80;;;3.40;;
17201;SDS011;8717;53.588;10.176;2023-05-07T10:54:46;5.07;;;3.40;;
17201;SDS011;8717;53.588;10.176;2023-05-07T10:57:34;4.03;;;3.30;;
17201;SDS011;8717;53.588;10.176;2023-05-07T11:03:11;3.50;;;3.20;;
17201;SDS011;8717;53.588;10.176;2023-05-07T11:05:48;3.50;;;3.20;;
17201;SDS011;8717;53.588;10.176;2023-05-07T11:08:52;3.87;;;3.13;;
17201;SDS011;8717;53.588;10.176;2023-05-07T11:17:16;3.10;;;2.80;;
17201;SDS011;8717;53.588;10.176;2023-05-07T11:19:49;3.30;;;2.57;;
17201;SDS011;8717;53.588;10.176;2023-05-07T11:22:36;4.80;;;3.00;;
17201;SDS011;8717;53.588;10.176;2023-05-07T11:25:37;3.47;;;2.70;;
17201;SDS011;8717;53.588;10.176;2023-05-07T11:28:11;2.97;;;2.60;;
17201;SDS011;8717;53.588;10.176;2023-05-07T11:30:48;3.60;;;2.57;;
17201;SDS011;8717;53.588;10.176;2023-05-07T11:33:18;2.83;;;2.40;;
17201;SDS011;8717;53.588;10.176;2023-05-07T11:35:47;2.57;;;2.33;;
17201;SDS011;8717;53.588;10.176;2023-05-07T11:38:16;2.57;;;2.37;;
17201;SDS011;8717;53.588;10.176;2023-05-07T11:40:50;5.10;;;2.80;;
17201;SDS011;8717;53.588;10.176;2023-05-07T11:43:18;3.17;;;2.40;;
17201;SDS011;8717;53.588;10.176;2023-05-07T11:45:44;3.13;;;2.47;;
17201;SDS011;8717;53.588;10.176;2023-05-07T11:48:13;3.00;;;2.80;;
17201;SDS011;8717;53.588;10.176;2023-05-07T11:50:49;4.10;;;2.50;;
17201;SDS011;8717;53.588;10.176;2023-05-07T11:53:16;3.90;;;2.30;;
17201;SDS011;8717;53.588;10.176;2023-05-07T11:55:43;3.00;;;2.70;;
17201;SDS011;8717;53.588;10.176;2023-05-07T11:58:11;3.67;;;2.23;;
17201;SDS011;8717;53.588;10.176;2023-05-07T12:00:47;2.73;;;2.40;;
17201;SDS011;8717;53.588;10.176;2023-05-07T12:03:16;2.70;;;2.20;;
17201;SDS011;8717;53.588;10.176;2023-05-07T12:05:43;4.07;;;2.30;;
17201;SDS011;8717;53.588;10.176;2023-05-07T12:08:13;2.47;;;2.27;;
17201;SDS011;8717;53.588;10.176;2023-05-07T12:10:40;2.60;;;2.40;;
17201;SDS011;8717;53.588;10.176;2023-05-07T12:13:13;3.63;;;2.23;;
17201;SDS011;8717;53.588;10.176;2023-05-07T12:15:40;2.43;;;2.03;;
17201;SDS011;8717;53.588;10.176;2023-05-07T12:18:07;2.30;;;2.10;;
17201;SDS011;8717;53.588;10.176;2023-05-07T12:20:36;2.33;;;2.13;;
17201;SDS011;8717;53.588;10.176;2023-05-07T12:23:03;1.97;;;1.77;;
17201;SDS011;8717;53.588;10.176;2023-05-07T12:25:30;2.83;;;1.80;;
17201;SDS011;8717;53.588;10.176;2023-05-07T12:27:57;1.80;;;1.70;;
17201;SDS011;8717;53.588;10.176;2023-05-07T12:30:26;2.50;;;1.87;;
17201;SDS011;8717;53.588;10.176;2023-05-07T12:32:52;2.20;;;2.00;;
17201;SDS011;8717;53.588;10.176;2023-05-07T12:35:25;2.90;;;2.27;;
17201;SDS011;8717;53.588;10.176;2023-05-07T12:37:57;2.97;;;1.80;;
17201;SDS011;8717;53.588;10.176;2023-05-07T12:40:35;2.10;;;1.70;;
17201;SDS011;8717;53.588;10.176;2023-05-07T12:43:02;1.93;;;1.80;;
17201;SDS011;8717;53.588;10.176;2023-05-07T12:45:29;2.67;;;2.20;;
17201;SDS011;8717;53.588;10.176;2023-05-07T12:47:55;2.00;;;1.70;;
17201;SDS011;8717;53.588;10.176;2023-05-07T12:50:30;1.77;;;1.67;;
17201;SDS011;8717;53.588;10.176;2023-05-07T12:52:59;1.70;;;1.50;;
17201;SDS011;8717;53.588;10.176;2023-05-07T12:55:25;2.00;;;1.77;;
17201;SDS011;8717;53.588;10.176;2023-05-07T12:57:52;2.77;;;1.80;;
17201;SDS011;8717;53.588;10.176;2023-05-07T13:00:32;2.73;;;1.63;;
17201;SDS011;8717;53.588;10.176;2023-05-07T13:02:59;2.00;;;1.70;;
17201;SDS011;8717;53.588;10.176;2023-05-07T13:05:26;3.37;;;1.83;;
17201;SDS011;8717;53.588;10.176;2023-05-07T13:07:53;1.70;;;1.60;;
17201;SDS011;8717;53.588;10.176;2023-05-07T13:10:21;1.87;;;1.67;;
17201;SDS011;8717;53.588;10.176;2023-05-07T13:12:48;3.20;;;1.60;;
17201;SDS011;8717;53.588;10.176;2023-05-07T13:15:15;1.70;;;1.60;;
17201;SDS011;8717;53.588;10.176;2023-05-07T13:17:42;1.77;;;1.53;;
17201;SDS011;8717;53.588;10.176;2023-05-07T13:20:09;2.07;;;1.90;;
17201;SDS011;8717;53.588;10.176;2023-05-07T13:22:36;1.87;;;1.73;;
17201;SDS011;8717;53.588;10.176;2023-05-07T13:25:03;2.00;;;1.50;;
17201;SDS011;8717;53.588;10.176;2023-05-07T13:27:32;1.60;;;1.50;;
17201;SDS011;8717;53.588;10.176;2023-05-07T13:30:00;1.83;;;1.73;;
17201;SDS011;8717;53.588;10.176;2023-05-07T13:32:27;1.80;;;1.70;;
17201;SDS011;8717;53.588;10.176;2023-05-07T13:34:54;2.33;;;1.63;;
17201;SDS011;8717;53.588;10.176;2023-05-07T13:37:20;2.57;;;1.83;;
17201;SDS011;8717;53.588;10.176;2023-05-07T13:39:47;1.60;;;1.50;;
17201;SDS011;8717;53.588;10.176;2023-05-07T13:42:14;3.07;;;1.70;;
17201;SDS011;8717;53.588;10.176;2023-05-07T13:44:42;1.50;;;1.40;;
17201;SDS011;8717;53.588;10.176;2023-05-07T13:47:08;1.80;;;1.40;;
17201;SDS011;8717;53.588;10.176;2023-05-07T13:49:35;2.10;;;1.90;;
17201;SDS011;8717;53.588;10.176;2023-05-07T13:52:02;2.13;;;1.50;;
17201;SDS011;8717;53.588;10.176;2023-05-07T13:54:29;2.22;;;1.70;;
17201;SDS011;8717;53.588;10.176;2023-05-07T13:56:55;2.75;;;2.00;;
17201;SDS011;8717;53.588;10.176;2023-05-07T13:59:22;1.70;;;1.60;;
17201;SDS011;8717;53.588;10.176;2023-05-07T14:01:50;1.80;;;1.70;;
17201;SDS011;8717;53.588;10.176;2023-05-07T14:04:17;1.80;;;1.60;;
17201;SDS011;8717;53.588;10.176;2023-05-07T14:06:43;2.38;;;1.60;;
17201;SDS011;8717;53.588;10.176;2023-05-07T14:09:10;1.60;;;1.50;;
17201;SDS011;8717;53.588;10.176;2023-05-07T14:11:38;1.90;;;1.60;;
17201;SDS011;8717;53.588;10.176;2023-05-07T14:14:05;1.92;;;1.50;;
17201;SDS011;8717;53.588;10.176;2023-05-07T14:16:31;2.60;;;1.83;;
17201;SDS011;8717;53.588;10.176;2023-05-07T14:18:59;1.80;;;1.70;;
17201;SDS011;8717;53.588;10.176;2023-05-07T14:21:26;5.00;;;1.73;;
17201;SDS011;8717;53.588;10.176;2023-05-07T14:23:52;2.73;;;1.97;;
17201;SDS011;8717;53.588;10.176;2023-05-07T14:26:21;2.33;;;1.77;;
17201;SDS011;8717;53.588;10.176;2023-05-07T14:28:48;1.70;;;1.40;;
17201;SDS011;8717;53.588;10.176;2023-05-07T14:31:15;2.07;;;1.70;;
17201;SDS011;8717;53.588;10.176;2023-05-07T14:33:41;1.60;;;1.50;;
17201;SDS011;8717;53.588;10.176;2023-05-07T14:36:09;1.60;;;1.40;;
17201;SDS011;8717;53.588;10.176;2023-05-07T14:38:36;3.83;;;1.57;;
17201;SDS011;8717;53.588;10.176;2023-05-07T14:41:03;1.90;;;1.50;;
17201;SDS011;8717;53.588;10.176;2023-05-07T14:43:29;2.57;;;1.60;;
17201;SDS011;8717;53.588;10.176;2023-05-07T14:45:56;1.70;;;1.50;;
17201;SDS011;8717;53.588;10.176;2023-05-07T14:48:23;1.83;;;1.50;;
17201;SDS011;8717;53.588;10.176;2023-05-07T14:50:49;2.73;;;1.70;;
17201;SDS011;8717;53.588;10.176;2023-05-07T14:53:17;1.43;;;1.33;;
17201;SDS011;8717;53.588;10.176;2023-05-07T14:55:44;1.67;;;1.53;;
17201;SDS011;8717;53.588;10.176;2023-05-07T14:58:11;1.83;;;1.73;;
17201;SDS011;8717;53.588;10.176;2023-05-07T15:00:37;1.83;;;1.63;;
17201;SDS011;8717;53.588;10.176;2023-05-07T15:03:06;3.30;;;1.93;;
17201;SDS011;8717;53.588;10.176;2023-05-07T15:05:34;2.33;;;1.53;;